sensor_id;sensor_type;location;lat;lon;timestamp;P1;durP1;ratioP1;P2;durP2;ratioP2
5795;SDS011;2924;51.458;7.046;2022-08-04T00:09:46;8.37;;;2.83;;
5795;SDS011;2924;51.458;7.046;2022-08-04T00:12:21;8.17;;;2.30;;
5795;SDS011;2924;51.458;7.046;2022-08-04T00:14:49;10.33;;;2.47;;
5795;SDS011;2924;51.458;7.046;2022-08-04T00:17:19;7.20;;;2.17;;
5795;SDS011;2924;51.458;7.046;2022-08-04T00:19:48;5.67;;;1.97;;
5795;SDS011;2924;51.458;7.046;2022-08-04T00:22:18;9.67;;;2.60;;
5795;SDS011;2924;51.458;7.046;2022-08-04T00:24:46;15.77;;;2.60;;
5795;SDS011;2924;51.458;7.046;2022-08-04T00:27:12;11.87;;;1.90;;
5795;SDS011;2924;51.458;7.046;2022-08-04T00:29:39;10.00;;;2.40;;
5795;SDS011;2924;51.458;7.046;2022-08-04T00:32:06;10.13;;;3.27;;
5795;SDS011;2924;51.458;7.046;2022-08-04T00:34:32;7.73;;;2.43;;
5795;SDS011;2924;51.458;7.046;2022-08-04T00:36:58;7.40;;;2.63;;
5795;SDS011;2924;51.458;7.046;2022-08-04T00:39:25;11.70;;;2.50;;
5795;SDS011;2924;51.458;7.046;2022-08-04T00:47:43;10.83;;;2.10;;
5795;SDS011;2924;51.458;7.046;2022-08-04T00:50:39;8.43;;;2.50;;
5795;SDS011;2924;51.458;7.046;2022-08-04T00:53:18;9.00;;;2.23;;
5795;SDS011;2924;51.458;7.046;2022-08-04T01:01:32;7.50;;;2.33;;
5795;SDS011;2924;51.458;7.046;2022-08-04T01:04:28;12.97;;;2.80;;
5795;SDS011;2924;51.458;7.046;2022-08-04T01:07:26;7.93;;;2.73;;
5795;SDS011;2924;51.458;7.046;2022-08-04T01:10:09;10.40;;;2.87;;
5795;SDS011;2924;51.458;7.046;2022-08-04T01:15:24;6.47;;;2.33;;
5795;SDS011;2924;51.458;7.046;2022-08-04T01:18:03;8.93;;;2.47;;
5795;SDS011;2924;51.458;7.046;2022-08-04T01:20:36;11.90;;;2.03;;
5795;SDS011;2924;51.458;7.046;2022-08-04T01:23:31;12.07;;;3.10;;
5795;SDS011;2924;51.458;7.046;2022-08-04T01:26:01;17.40;;;2.67;;
5795;SDS011;2924;51.458;7.046;2022-08-04T01:29:08;6.43;;;2.57;;
5795;SDS011;2924;51.458;7.046;2022-08-04T01:34:12;19.47;;;2.67;;
5795;SDS011;2924;51.458;7.046;2022-08-04T01:36:45;7.73;;;2.60;;
5795;SDS011;2924;51.458;7.046;2022-08-04T01:39:21;14.30;;;3.10;;
5795;SDS011;2924;51.458;7.046;2022-08-04T01:42:05;7.30;;;2.70;;
5795;SDS011;2924;51.458;7.046;2022-08-04T01:44:32;6.20;;;2.43;;
5795;SDS011;2924;51.458;7.046;2022-08-04T01:47:01;15.70;;;2.33;;
5795;SDS011;2924;51.458;7.046;2022-08-04T01:49:28;11.93;;;2.73;;
5795;SDS011;2924;51.458;7.046;2022-08-04T01:51:55;10.77;;;2.40;;
5795;SDS011;2924;51.458;7.046;2022-08-04T01:54:22;15.13;;;2.80;;
5795;SDS011;2924;51.458;7.046;2022-08-04T01:56:49;10.70;;;2.53;;
5795;SDS011;2924;51.458;7.046;2022-08-04T01:59:19;8.13;;;2.13;;
5795;SDS011;2924;51.458;7.046;2022-08-04T02:01:46;8.03;;;2.53;;
5795;SDS011;2924;51.458;7.046;2022-08-04T02:04:19;8.70;;;2.10;;
5795;SDS011;2924;51.458;7.046;2022-08-04T02:09:21;13.53;;;1.93;;
5795;SDS011;2924;51.458;7.046;2022-08-04T02:12:03;14.20;;;3.30;;
5795;SDS011;2924;51.458;7.046;2022-08-04T02:17:26;14.90;;;3.00;;
5795;SDS011;2924;51.458;7.046;2022-08-04T02:20:07;10.47;;;2.93;;
5795;SDS011;2924;51.458;7.046;2022-08-04T02:22:40;10.63;;;2.63;;
5795;SDS011;2924;51.458;7.046;2022-08-04T02:25:13;9.20;;;3.00;;
5795;SDS011;2924;51.458;7.046;2022-08-04T02:30:38;13.10;;;2.90;;
5795;SDS011;2924;51.458;7.046;2022-08-04T02:33:09;9.90;;;2.60;;
5795;SDS011;2924;51.458;7.046;2022-08-04T02:35:40;4.80;;;2.27;;
5795;SDS011;2924;51.458;7.046;2022-08-04T02:41:06;12.63;;;2.87;;
5795;SDS011;2924;51.458;7.046;2022-08-04T02:43:33;10.67;;;3.27;;
5795;SDS011;2924;51.458;7.046;2022-08-04T02:46:02;13.80;;;2.83;;
5795;SDS011;2924;51.458;7.046;2022-08-04T02:48:30;5.17;;;2.33;;
5795;SDS011;2924;51.458;7.046;2022-08-04T02:50:58;11.23;;;3.17;;
5795;SDS011;2924;51.458;7.046;2022-08-04T02:53:27;4.90;;;2.00;;
5795;SDS011;2924;51.458;7.046;2022-08-04T02:55:54;9.40;;;2.63;;
5795;SDS011;2924;51.458;7.046;2022-08-04T02:58:22;8.47;;;2.30;;
5795;SDS011;2924;51.458;7.046;2022-08-04T03:00:50;13.23;;;3.00;;
5795;SDS011;2924;51.458;7.046;2022-08-04T03:03:30;5.77;;;3.10;;
5795;SDS011;2924;51.458;7.046;2022-08-04T03:14:33;8.50;;;2.80;;
5795;SDS011;2924;51.458;7.046;2022-08-04T03:30:36;9.27;;;3.00;;
5795;SDS011;2924;51.458;7.046;2022-08-04T03:42:29;18.00;;;3.60;;
5795;SDS011;2924;51.458;7.046;2022-08-04T04:23:32;10.27;;;4.23;;
5795;SDS011;2924;51.458;7.046;2022-08-04T04:26:26;14.27;;;3.47;;
5795;SDS011;2924;51.458;7.046;2022-08-04T04:29:01;5.97;;;3.43;;
5795;SDS011;2924;51.458;7.046;2022-08-04T04:34:49;5.77;;;3.07;;
5795;SDS011;2924;51.458;7.046;2022-08-04T04:37:35;17.90;;;4.70;;
5795;SDS011;2924;51.458;7.046;2022-08-04T04:40:31;10.30;;;3.00;;
5795;SDS011;2924;51.458;7.046;2022-08-04T04:51:40;9.33;;;3.67;;
5795;SDS011;2924;51.458;7.046;2022-08-04T04:57:08;10.70;;;3.70;;
5795;SDS011;2924;51.458;7.046;2022-08-04T05:00:03;7.40;;;3.10;;
5795;SDS011;2924;51.458;7.046;2022-08-04T05:02:50;4.43;;;3.27;;
5795;SDS011;2924;51.458;7.046;2022-08-04T05:14:17;6.47;;;3.10;;
5795;SDS011;2924;51.458;7.046;2022-08-04T05:17:11;10.33;;;2.90;;
5795;SDS011;2924;51.458;7.046;2022-08-04T05:22:24;8.70;;;2.70;;
5795;SDS011;2924;51.458;7.046;2022-08-04T05:30:34;6.93;;;2.60;;
5795;SDS011;2924;51.458;7.046;2022-08-04T05:33:12;6.73;;;3.53;;
5795;SDS011;2924;51.458;7.046;2022-08-04T05:35:48;9.33;;;2.90;;
5795;SDS011;2924;51.458;7.046;2022-08-04T05:38:19;7.33;;;3.50;;
5795;SDS011;2924;51.458;7.046;2022-08-04T05:40:47;11.13;;;3.10;;
5795;SDS011;2924;51.458;7.046;2022-08-04T05:43:14;9.50;;;2.80;;
5795;SDS011;2924;51.458;7.046;2022-08-04T05:45:41;6.50;;;2.30;;
5795;SDS011;2924;51.458;7.046;2022-08-04T05:48:12;10.90;;;2.67;;
5795;SDS011;2924;51.458;7.046;2022-08-04T05:50:38;6.43;;;2.60;;
5795;SDS011;2924;51.458;7.046;2022-08-04T05:53:04;7.03;;;2.77;;
5795;SDS011;2924;51.458;7.046;2022-08-04T05:55:32;5.03;;;2.57;;
5795;SDS011;2924;51.458;7.046;2022-08-04T05:57:58;7.73;;;2.33;;
5795;SDS011;2924;51.458;7.046;2022-08-04T06:00:26;7.00;;;2.60;;
5795;SDS011;2924;51.458;7.046;2022-08-04T06:02:53;3.63;;;1.90;;
5795;SDS011;2924;51.458;7.046;2022-08-04T06:05:20;6.47;;;2.70;;
5795;SDS011;2924;51.458;7.046;2022-08-04T06:07:47;4.87;;;2.50;;
5795;SDS011;2924;51.458;7.046;2022-08-04T06:10:13;6.90;;;3.37;;
5795;SDS011;2924;51.458;7.046;2022-08-04T06:12:43;3.90;;;2.37;;
5795;SDS011;2924;51.458;7.046;2022-08-04T06:15:25;14.23;;;2.60;;
5795;SDS011;2924;51.458;7.046;2022-08-04T06:17:54;4.30;;;2.23;;
5795;SDS011;2924;51.458;7.046;2022-08-04T06:20:26;7.60;;;2.73;;
5795;SDS011;2924;51.458;7.046;2022-08-04T06:22:55;4.00;;;2.40;;
5795;SDS011;2924;51.458;7.046;2022-08-04T06:25:33;10.73;;;2.77;;
5795;SDS011;2924;51.458;7.046;2022-08-04T06:28:07;5.80;;;2.60;;
5795;SDS011;2924;51.458;7.046;2022-08-04T06:30:34;10.40;;;2.60;;
5795;SDS011;2924;51.458;7.046;2022-08-04T06:33:01;7.03;;;2.40;;
5795;SDS011;2924;51.458;7.046;2022-08-04T06:35:37;15.47;;;2.17;;
5795;SDS011;2924;51.458;7.046;2022-08-04T06:38:04;12.17;;;2.83;;
5795;SDS011;2924;51.458;7.046;2022-08-04T06:40:32;5.83;;;1.93;;
5795;SDS011;2924;51.458;7.046;2022-08-04T06:42:59;9.07;;;3.03;;
5795;SDS011;2924;51.458;7.046;2022-08-04T06:45:26;4.20;;;2.20;;
5795;SDS011;2924;51.458;7.046;2022-08-04T06:47:53;8.00;;;2.35;;
5795;SDS011;2924;51.458;7.046;2022-08-04T06:50:20;7.10;;;2.08;;
5795;SDS011;2924;51.458;7.046;2022-08-04T06:52:46;14.35;;;2.10;;
5795;SDS011;2924;51.458;7.046;2022-08-04T06:55:12;4.05;;;2.33;;
5795;SDS011;2924;51.458;7.046;2022-08-04T06:57:38;2.75;;;1.90;;
5795;SDS011;2924;51.458;7.046;2022-08-04T07:00:06;1.92;;;1.83;;
5795;SDS011;2924;51.458;7.046;2022-08-04T07:02:46;3.17;;;1.98;;
5795;SDS011;2924;51.458;7.046;2022-08-04T07:05:15;3.08;;;2.30;;
5795;SDS011;2924;51.458;7.046;2022-08-04T07:07:42;6.95;;;2.10;;
5795;SDS011;2924;51.458;7.046;2022-08-04T07:10:09;8.98;;;2.38;;
5795;SDS011;2924;51.458;7.046;2022-08-04T07:12:36;2.63;;;2.08;;
5795;SDS011;2924;51.458;7.046;2022-08-04T07:15:04;6.60;;;2.17;;
5795;SDS011;2924;51.458;7.046;2022-08-04T07:17:31;5.32;;;2.88;;
5795;SDS011;2924;51.458;7.046;2022-08-04T07:19:59;5.38;;;1.73;;
5795;SDS011;2924;51.458;7.046;2022-08-04T07:22:26;4.28;;;2.50;;
5795;SDS011;2924;51.458;7.046;2022-08-04T07:24:54;8.82;;;2.15;;
5795;SDS011;2924;51.458;7.046;2022-08-04T07:27:20;3.35;;;2.10;;
5795;SDS011;2924;51.458;7.046;2022-08-04T07:29:47;1.85;;;1.60;;
5795;SDS011;2924;51.458;7.046;2022-08-04T07:32:13;4.93;;;2.38;;
5795;SDS011;2924;51.458;7.046;2022-08-04T07:34:41;2.80;;;1.65;;
5795;SDS011;2924;51.458;7.046;2022-08-04T07:37:08;1.90;;;1.75;;
5795;SDS011;2924;51.458;7.046;2022-08-04T07:39:34;10.27;;;2.10;;
5795;SDS011;2924;51.458;7.046;2022-08-04T07:42:01;4.50;;;1.88;;
5795;SDS011;2924;51.458;7.046;2022-08-04T07:44:28;5.80;;;1.90;;
5795;SDS011;2924;51.458;7.046;2022-08-04T07:46:56;2.95;;;1.95;;
5795;SDS011;2924;51.458;7.046;2022-08-04T07:49:22;12.77;;;2.33;;
5795;SDS011;2924;51.458;7.046;2022-08-04T07:51:50;2.45;;;2.03;;
5795;SDS011;2924;51.458;7.046;2022-08-04T07:54:17;4.00;;;1.80;;
5795;SDS011;2924;51.458;7.046;2022-08-04T07:56:44;8.30;;;2.17;;
5795;SDS011;2924;51.458;7.046;2022-08-04T07:59:13;3.15;;;1.88;;
5795;SDS011;2924;51.458;7.046;2022-08-04T08:01:40;3.38;;;1.95;;
5795;SDS011;2924;51.458;7.046;2022-08-04T08:04:06;4.20;;;2.55;;
5795;SDS011;2924;51.458;7.046;2022-08-04T08:06:37;3.17;;;2.00;;
5795;SDS011;2924;51.458;7.046;2022-08-04T08:09:08;1.70;;;1.60;;
5795;SDS011;2924;51.458;7.046;2022-08-04T08:11:43;2.83;;;2.22;;
5795;SDS011;2924;51.458;7.046;2022-08-04T08:14:13;7.28;;;2.25;;
5795;SDS011;2924;51.458;7.046;2022-08-04T08:16:40;4.38;;;2.08;;
5795;SDS011;2924;51.458;7.046;2022-08-04T08:19:06;8.90;;;1.90;;
5795;SDS011;2924;51.458;7.046;2022-08-04T08:21:31;1.80;;;1.70;;
5795;SDS011;2924;51.458;7.046;2022-08-04T08:23:58;2.10;;;1.63;;
5795;SDS011;2924;51.458;7.046;2022-08-04T08:26:24;5.90;;;1.98;;
5795;SDS011;2924;51.458;7.046;2022-08-04T08:28:50;7.88;;;2.00;;
5795;SDS011;2924;51.458;7.046;2022-08-04T08:31:17;2.50;;;1.85;;
5795;SDS011;2924;51.458;7.046;2022-08-04T08:33:43;1.65;;;1.58;;
5795;SDS011;2924;51.458;7.046;2022-08-04T08:36:23;2.42;;;1.60;;
5795;SDS011;2924;51.458;7.046;2022-08-04T08:39:37;6.65;;;2.30;;
5795;SDS011;2924;51.458;7.046;2022-08-04T08:53:29;12.48;;;2.10;;
5795;SDS011;2924;51.458;7.046;2022-08-04T09:01:57;5.57;;;1.83;;
5795;SDS011;2924;51.458;7.046;2022-08-04T09:08:07;1.45;;;1.23;;
5795;SDS011;2924;51.458;7.046;2022-08-04T09:18:38;2.83;;;1.17;;
5795;SDS011;2924;51.458;7.046;2022-08-04T09:24:10;2.75;;;1.58;;
5795;SDS011;2924;51.458;7.046;2022-08-04T09:37:35;3.83;;;1.42;;
5795;SDS011;2924;51.458;7.046;2022-08-04T09:40:24;1.45;;;1.35;;
5795;SDS011;2924;51.458;7.046;2022-08-04T09:48:39;3.90;;;1.50;;
5795;SDS011;2924;51.458;7.046;2022-08-04T09:51:18;9.45;;;1.55;;
5795;SDS011;2924;51.458;7.046;2022-08-04T09:59:06;8.23;;;2.17;;
5795;SDS011;2924;51.458;7.046;2022-08-04T10:01:49;6.32;;;1.90;;
5795;SDS011;2924;51.458;7.046;2022-08-04T10:04:22;5.93;;;2.40;;
5795;SDS011;2924;51.458;7.046;2022-08-04T10:13:03;3.72;;;1.58;;
5795;SDS011;2924;51.458;7.046;2022-08-04T10:24:20;5.05;;;1.80;;
5795;SDS011;2924;51.458;7.046;2022-08-04T10:26:59;2.72;;;2.15;;
5795;SDS011;2924;51.458;7.046;2022-08-04T10:29:36;4.60;;;2.25;;
5795;SDS011;2924;51.458;7.046;2022-08-04T10:37:28;3.67;;;2.17;;
5795;SDS011;2924;51.458;7.046;2022-08-04T10:40:09;2.40;;;2.10;;
5795;SDS011;2924;51.458;7.046;2022-08-04T10:42:59;5.90;;;2.67;;
5795;SDS011;2924;51.458;7.046;2022-08-04T10:45:58;3.55;;;2.58;;
5795;SDS011;2924;51.458;7.046;2022-08-04T10:53:49;15.57;;;3.72;;
5795;SDS011;2924;51.458;7.046;2022-08-04T10:56:26;7.40;;;3.40;;
5795;SDS011;2924;51.458;7.046;2022-08-04T10:59:02;3.20;;;2.38;;
5795;SDS011;2924;51.458;7.046;2022-08-04T11:01:34;12.82;;;3.00;;
5795;SDS011;2924;51.458;7.046;2022-08-04T11:04:09;7.63;;;3.40;;
5795;SDS011;2924;51.458;7.046;2022-08-04T11:06:42;10.18;;;3.50;;
5795;SDS011;2924;51.458;7.046;2022-08-04T11:09:10;11.57;;;3.83;;
5795;SDS011;2924;51.458;7.046;2022-08-04T11:11:42;6.53;;;2.92;;
5795;SDS011;2924;51.458;7.046;2022-08-04T11:14:18;11.98;;;3.47;;
5795;SDS011;2924;51.458;7.046;2022-08-04T11:16:48;7.30;;;2.60;;
5795;SDS011;2924;51.458;7.046;2022-08-04T11:19:29;5.63;;;2.47;;
5795;SDS011;2924;51.458;7.046;2022-08-04T11:22:24;4.45;;;2.17;;
5795;SDS011;2924;51.458;7.046;2022-08-04T11:27:33;8.82;;;2.17;;
5795;SDS011;2924;51.458;7.046;2022-08-04T11:30:02;5.93;;;2.08;;
5795;SDS011;2924;51.458;7.046;2022-08-04T11:32:36;12.65;;;1.80;;
5795;SDS011;2924;51.458;7.046;2022-08-04T11:35:34;9.38;;;1.85;;
5795;SDS011;2924;51.458;7.046;2022-08-04T11:38:11;4.47;;;2.08;;
5795;SDS011;2924;51.458;7.046;2022-08-04T11:40:46;5.35;;;2.08;;
5795;SDS011;2924;51.458;7.046;2022-08-04T11:44:02;6.43;;;2.08;;
5795;SDS011;2924;51.458;7.046;2022-08-04T11:46:11;9.88;;;3.10;;
5795;SDS011;2924;51.458;7.046;2022-08-04T11:49:03;5.63;;;2.35;;
5795;SDS011;2924;51.458;7.046;2022-08-04T11:51:39;5.65;;;2.28;;
5795;SDS011;2924;51.458;7.046;2022-08-04T11:54:07;10.20;;;2.58;;
5795;SDS011;2924;51.458;7.046;2022-08-04T11:56:36;5.60;;;2.05;;
5795;SDS011;2924;51.458;7.046;2022-08-04T11:59:02;4.82;;;2.40;;
5795;SDS011;2924;51.458;7.046;2022-08-04T12:06:55;9.95;;;1.52;;
5795;SDS011;2924;51.458;7.046;2022-08-04T12:09:35;7.38;;;2.25;;
5795;SDS011;2924;51.458;7.046;2022-08-04T12:15:15;6.72;;;4.80;;
5795;SDS011;2924;51.458;7.046;2022-08-04T12:18:01;14.00;;;4.88;;
5795;SDS011;2924;51.458;7.046;2022-08-04T12:21:02;6.82;;;2.35;;
5795;SDS011;2924;51.458;7.046;2022-08-04T12:23:35;6.18;;;2.40;;
5795;SDS011;2924;51.458;7.046;2022-08-04T12:26:05;6.72;;;2.13;;
5795;SDS011;2924;51.458;7.046;2022-08-04T12:28:39;8.85;;;1.77;;
5795;SDS011;2924;51.458;7.046;2022-08-04T12:31:18;9.02;;;1.92;;
5795;SDS011;2924;51.458;7.046;2022-08-04T12:36:35;7.93;;;1.70;;
5795;SDS011;2924;51.458;7.046;2022-08-04T12:39:15;9.07;;;2.25;;
5795;SDS011;2924;51.458;7.046;2022-08-04T12:41:45;3.70;;;2.13;;
5795;SDS011;2924;51.458;7.046;2022-08-04T12:44:18;3.53;;;2.00;;
5795;SDS011;2924;51.458;7.046;2022-08-04T12:46:46;4.38;;;2.15;;
5795;SDS011;2924;51.458;7.046;2022-08-04T12:49:13;5.82;;;2.42;;
5795;SDS011;2924;51.458;7.046;2022-08-04T12:51:42;12.77;;;2.13;;
5795;SDS011;2924;51.458;7.046;2022-08-04T12:54:09;5.88;;;2.42;;
5795;SDS011;2924;51.458;7.046;2022-08-04T12:56:36;24.75;;;2.72;;
5795;SDS011;2924;51.458;7.046;2022-08-04T12:59:07;7.22;;;2.33;;
5795;SDS011;2924;51.458;7.046;2022-08-04T13:01:34;6.90;;;2.58;;
5795;SDS011;2924;51.458;7.046;2022-08-04T13:04:11;7.85;;;3.08;;
5795;SDS011;2924;51.458;7.046;2022-08-04T13:06:37;5.28;;;3.00;;
5795;SDS011;2924;51.458;7.046;2022-08-04T13:09:38;10.20;;;2.65;;
5795;SDS011;2924;51.458;7.046;2022-08-04T13:11:59;9.77;;;2.65;;
5795;SDS011;2924;51.458;7.046;2022-08-04T13:14:30;11.80;;;2.35;;
5795;SDS011;2924;51.458;7.046;2022-08-04T13:17:00;4.18;;;2.50;;
5795;SDS011;2924;51.458;7.046;2022-08-04T13:19:26;6.10;;;2.22;;
5795;SDS011;2924;51.458;7.046;2022-08-04T13:21:53;6.05;;;2.15;;
5795;SDS011;2924;51.458;7.046;2022-08-04T13:24:21;9.20;;;2.30;;
5795;SDS011;2924;51.458;7.046;2022-08-04T13:27:01;8.23;;;2.30;;
5795;SDS011;2924;51.458;7.046;2022-08-04T13:29:35;6.28;;;2.38;;
5795;SDS011;2924;51.458;7.046;2022-08-04T13:32:05;12.88;;;2.80;;
5795;SDS011;2924;51.458;7.046;2022-08-04T13:34:33;4.68;;;1.92;;
5795;SDS011;2924;51.458;7.046;2022-08-04T13:37:03;2.78;;;2.53;;
5795;SDS011;2924;51.458;7.046;2022-08-04T13:39:30;7.95;;;2.53;;
5795;SDS011;2924;51.458;7.046;2022-08-04T13:41:59;9.27;;;2.08;;
5795;SDS011;2924;51.458;7.046;2022-08-04T13:44:29;8.23;;;2.30;;
5795;SDS011;2924;51.458;7.046;2022-08-04T13:46:59;8.50;;;1.50;;
5795;SDS011;2924;51.458;7.046;2022-08-04T13:49:28;8.98;;;2.63;;
5795;SDS011;2924;51.458;7.046;2022-08-04T13:51:55;4.50;;;1.98;;
5795;SDS011;2924;51.458;7.046;2022-08-04T13:54:24;2.40;;;1.98;;
5795;SDS011;2924;51.458;7.046;2022-08-04T13:57:00;4.70;;;2.58;;
5795;SDS011;2924;51.458;7.046;2022-08-04T13:59:35;7.47;;;2.10;;
5795;SDS011;2924;51.458;7.046;2022-08-04T14:02:12;5.03;;;1.77;;
5795;SDS011;2924;51.458;7.046;2022-08-04T14:05:01;2.35;;;1.50;;
5795;SDS011;2924;51.458;7.046;2022-08-04T14:07:33;2.97;;;1.80;;
5795;SDS011;2924;51.458;7.046;2022-08-04T14:10:16;4.00;;;1.50;;
5795;SDS011;2924;51.458;7.046;2022-08-04T14:12:46;11.57;;;1.73;;
5795;SDS011;2924;51.458;7.046;2022-08-04T14:18:21;6.55;;;2.50;;
5795;SDS011;2924;51.458;7.046;2022-08-04T14:21:07;8.52;;;1.88;;
5795;SDS011;2924;51.458;7.046;2022-08-04T14:29:12;3.50;;;1.65;;
5795;SDS011;2924;51.458;7.046;2022-08-04T14:31:39;7.22;;;2.42;;
5795;SDS011;2924;51.458;7.046;2022-08-04T14:34:05;5.68;;;2.42;;
5795;SDS011;2924;51.458;7.046;2022-08-04T14:36:41;5.38;;;2.45;;
5795;SDS011;2924;51.458;7.046;2022-08-04T14:39:08;5.78;;;2.00;;
5795;SDS011;2924;51.458;7.046;2022-08-04T14:41:47;9.13;;;1.73;;
5795;SDS011;2924;51.458;7.046;2022-08-04T14:44:14;7.32;;;2.00;;
5795;SDS011;2924;51.458;7.046;2022-08-04T14:46:50;2.15;;;1.95;;
5795;SDS011;2924;51.458;7.046;2022-08-04T14:49:17;3.92;;;2.15;;
5795;SDS011;2924;51.458;7.046;2022-08-04T14:51:44;7.85;;;1.98;;
5795;SDS011;2924;51.458;7.046;2022-08-04T14:54:23;2.38;;;2.15;;
5795;SDS011;2924;51.458;7.046;2022-08-04T14:56:52;3.08;;;1.88;;
5795;SDS011;2924;51.458;7.046;2022-08-04T14:59:20;6.10;;;2.90;;
5795;SDS011;2924;51.458;7.046;2022-08-04T15:01:46;9.50;;;2.97;;
5795;SDS011;2924;51.458;7.046;2022-08-04T15:04:14;8.07;;;2.70;;
5795;SDS011;2924;51.458;7.046;2022-08-04T15:06:40;8.25;;;4.32;;
5795;SDS011;2924;51.458;7.046;2022-08-04T15:09:07;10.90;;;4.03;;
5795;SDS011;2924;51.458;7.046;2022-08-04T15:11:34;13.38;;;5.82;;
5795;SDS011;2924;51.458;7.046;2022-08-04T15:14:01;16.50;;;6.50;;
5795;SDS011;2924;51.458;7.046;2022-08-04T15:16:29;15.18;;;6.88;;
5795;SDS011;2924;51.458;7.046;2022-08-04T15:18:56;23.63;;;7.68;;
5795;SDS011;2924;51.458;7.046;2022-08-04T15:21:23;18.23;;;7.13;;
5795;SDS011;2924;51.458;7.046;2022-08-04T15:23:52;16.20;;;4.95;;
5795;SDS011;2924;51.458;7.046;2022-08-04T15:26:22;11.57;;;4.50;;
5795;SDS011;2924;51.458;7.046;2022-08-04T15:29:07;8.02;;;3.35;;
5795;SDS011;2924;51.458;7.046;2022-08-04T15:31:43;9.77;;;3.15;;
5795;SDS011;2924;51.458;7.046;2022-08-04T15:34:10;9.88;;;2.63;;
5795;SDS011;2924;51.458;7.046;2022-08-04T15:36:41;4.18;;;1.80;;
5795;SDS011;2924;51.458;7.046;2022-08-04T15:41:59;3.97;;;1.60;;
5795;SDS011;2924;51.458;7.046;2022-08-04T15:44:45;6.60;;;2.00;;
5795;SDS011;2924;51.458;7.046;2022-08-04T15:47:16;3.60;;;2.20;;
5795;SDS011;2924;51.458;7.046;2022-08-04T15:49:43;7.30;;;2.53;;
5795;SDS011;2924;51.458;7.046;2022-08-04T15:52:14;6.65;;;2.15;;
5795;SDS011;2924;51.458;7.046;2022-08-04T15:54:41;5.30;;;1.77;;
5795;SDS011;2924;51.458;7.046;2022-08-04T15:57:08;5.38;;;2.00;;
5795;SDS011;2924;51.458;7.046;2022-08-04T16:13:12;3.35;;;2.63;;
5795;SDS011;2924;51.458;7.046;2022-08-04T16:15:41;4.45;;;2.22;;
5795;SDS011;2924;51.458;7.046;2022-08-04T16:18:09;2.80;;;1.80;;
5795;SDS011;2924;51.458;7.046;2022-08-04T16:20:36;5.07;;;1.92;;
5795;SDS011;2924;51.458;7.046;2022-08-04T16:29:01;6.25;;;2.58;;
5795;SDS011;2924;51.458;7.046;2022-08-04T16:34:32;5.05;;;2.15;;
5795;SDS011;2924;51.458;7.046;2022-08-04T16:36:58;3.55;;;2.20;;
5795;SDS011;2924;51.458;7.046;2022-08-04T16:39:32;5.55;;;2.30;;
5795;SDS011;2924;51.458;7.046;2022-08-04T16:41:58;7.13;;;2.85;;
5795;SDS011;2924;51.458;7.046;2022-08-04T16:44:27;6.22;;;2.20;;
5795;SDS011;2924;51.458;7.046;2022-08-04T16:47:01;7.97;;;2.75;;
5795;SDS011;2924;51.458;7.046;2022-08-04T16:49:29;4.10;;;2.20;;
5795;SDS011;2924;51.458;7.046;2022-08-04T16:52:06;5.82;;;2.40;;
5795;SDS011;2924;51.458;7.046;2022-08-04T16:54:33;5.00;;;2.60;;
5795;SDS011;2924;51.458;7.046;2022-08-04T16:57:09;6.47;;;2.28;;
5795;SDS011;2924;51.458;7.046;2022-08-04T16:59:35;3.58;;;1.98;;
5795;SDS011;2924;51.458;7.046;2022-08-04T17:02:01;3.13;;;1.98;;
5795;SDS011;2924;51.458;7.046;2022-08-04T17:04:28;4.38;;;2.78;;
5795;SDS011;2924;51.458;7.046;2022-08-04T17:06:59;10.30;;;3.00;;
5795;SDS011;2924;51.458;7.046;2022-08-04T17:09:26;13.68;;;2.75;;
5795;SDS011;2924;51.458;7.046;2022-08-04T17:11:53;4.30;;;2.38;;
5795;SDS011;2924;51.458;7.046;2022-08-04T17:14:24;5.40;;;2.65;;
5795;SDS011;2924;51.458;7.046;2022-08-04T17:16:52;4.35;;;1.95;;
5795;SDS011;2924;51.458;7.046;2022-08-04T17:19:21;6.45;;;2.35;;
5795;SDS011;2924;51.458;7.046;2022-08-04T17:21:47;8.48;;;2.40;;
5795;SDS011;2924;51.458;7.046;2022-08-04T17:24:13;3.70;;;1.85;;
5795;SDS011;2924;51.458;7.046;2022-08-04T17:26:40;6.55;;;2.78;;
5795;SDS011;2924;51.458;7.046;2022-08-04T17:29:06;8.27;;;2.90;;
5795;SDS011;2924;51.458;7.046;2022-08-04T17:31:32;5.32;;;2.53;;
5795;SDS011;2924;51.458;7.046;2022-08-04T17:34:07;6.95;;;2.80;;
5795;SDS011;2924;51.458;7.046;2022-08-04T17:36:35;4.32;;;2.40;;
5795;SDS011;2924;51.458;7.046;2022-08-04T17:39:03;6.40;;;2.60;;
5795;SDS011;2924;51.458;7.046;2022-08-04T17:41:37;4.90;;;2.65;;
5795;SDS011;2924;51.458;7.046;2022-08-04T17:44:03;3.95;;;2.17;;
5795;SDS011;2924;51.458;7.046;2022-08-04T17:49:19;6.45;;;2.38;;
5795;SDS011;2924;51.458;7.046;2022-08-04T17:56:45;4.38;;;2.47;;
5795;SDS011;2924;51.458;7.046;2022-08-04T17:59:22;6.57;;;2.30;;
5795;SDS011;2924;51.458;7.046;2022-08-04T18:02:06;2.83;;;2.28;;
5795;SDS011;2924;51.458;7.046;2022-08-04T18:07:15;4.97;;;2.35;;
5795;SDS011;2924;51.458;7.046;2022-08-04T18:09:50;5.78;;;2.20;;
5795;SDS011;2924;51.458;7.046;2022-08-04T18:15:05;5.50;;;2.55;;
5795;SDS011;2924;51.458;7.046;2022-08-04T18:20:00;7.43;;;2.57;;
5795;SDS011;2924;51.458;7.046;2022-08-04T18:22:29;5.93;;;3.47;;
5795;SDS011;2924;51.458;7.046;2022-08-04T18:24:55;12.40;;;3.80;;
5795;SDS011;2924;51.458;7.046;2022-08-04T18:27:21;5.63;;;2.83;;
5795;SDS011;2924;51.458;7.046;2022-08-04T18:29:49;5.10;;;2.70;;
5795;SDS011;2924;51.458;7.046;2022-08-04T18:32:15;5.60;;;2.57;;
5795;SDS011;2924;51.458;7.046;2022-08-04T18:34:41;5.90;;;2.83;;
5795;SDS011;2924;51.458;7.046;2022-08-04T18:37:07;10.60;;;2.60;;
5795;SDS011;2924;51.458;7.046;2022-08-04T18:39:32;17.23;;;2.83;;
5795;SDS011;2924;51.458;7.046;2022-08-04T18:41:58;7.57;;;2.60;;
5795;SDS011;2924;51.458;7.046;2022-08-04T18:44:25;7.93;;;2.53;;
5795;SDS011;2924;51.458;7.046;2022-08-04T18:46:53;5.50;;;2.97;;
5795;SDS011;2924;51.458;7.046;2022-08-04T18:49:19;7.13;;;3.03;;
5795;SDS011;2924;51.458;7.046;2022-08-04T18:51:48;7.80;;;2.87;;
5795;SDS011;2924;51.458;7.046;2022-08-04T18:54:17;12.50;;;3.30;;
5795;SDS011;2924;51.458;7.046;2022-08-04T18:56:44;4.13;;;2.60;;
5795;SDS011;2924;51.458;7.046;2022-08-04T18:59:09;8.40;;;3.00;;
5795;SDS011;2924;51.458;7.046;2022-08-04T19:01:35;6.60;;;3.37;;
5795;SDS011;2924;51.458;7.046;2022-08-04T19:04:01;6.03;;;2.77;;
5795;SDS011;2924;51.458;7.046;2022-08-04T19:06:27;11.77;;;3.07;;
5795;SDS011;2924;51.458;7.046;2022-08-04T19:08:54;15.90;;;3.50;;
5795;SDS011;2924;51.458;7.046;2022-08-04T19:11:20;8.07;;;3.07;;
5795;SDS011;2924;51.458;7.046;2022-08-04T19:13:46;7.27;;;2.73;;
5795;SDS011;2924;51.458;7.046;2022-08-04T19:16:12;7.63;;;2.70;;
5795;SDS011;2924;51.458;7.046;2022-08-04T19:18:38;8.63;;;2.93;;
5795;SDS011;2924;51.458;7.046;2022-08-04T19:21:03;5.90;;;3.20;;
5795;SDS011;2924;51.458;7.046;2022-08-04T19:23:29;3.80;;;3.07;;
5795;SDS011;2924;51.458;7.046;2022-08-04T19:25:56;8.17;;;4.10;;
5795;SDS011;2924;51.458;7.046;2022-08-04T19:28:23;6.67;;;3.50;;
5795;SDS011;2924;51.458;7.046;2022-08-04T19:30:49;10.43;;;3.80;;
5795;SDS011;2924;51.458;7.046;2022-08-04T19:33:15;4.00;;;2.70;;
5795;SDS011;2924;51.458;7.046;2022-08-04T19:35:41;5.63;;;2.60;;
5795;SDS011;2924;51.458;7.046;2022-08-04T19:38:08;9.57;;;3.10;;
5795;SDS011;2924;51.458;7.046;2022-08-04T19:40:35;5.30;;;3.10;;
5795;SDS011;2924;51.458;7.046;2022-08-04T19:43:02;12.20;;;3.93;;
5795;SDS011;2924;51.458;7.046;2022-08-04T19:45:27;5.80;;;2.83;;
5795;SDS011;2924;51.458;7.046;2022-08-04T19:47:53;13.47;;;4.00;;
5795;SDS011;2924;51.458;7.046;2022-08-04T19:50:19;5.50;;;2.80;;
5795;SDS011;2924;51.458;7.046;2022-08-04T19:52:45;7.03;;;2.70;;
5795;SDS011;2924;51.458;7.046;2022-08-04T19:55:11;7.70;;;3.60;;
5795;SDS011;2924;51.458;7.046;2022-08-04T19:57:37;7.77;;;3.20;;
5795;SDS011;2924;51.458;7.046;2022-08-04T20:00:08;13.63;;;3.60;;
5795;SDS011;2924;51.458;7.046;2022-08-04T20:02:36;7.00;;;3.60;;
5795;SDS011;2924;51.458;7.046;2022-08-04T20:05:02;6.33;;;2.87;;
5795;SDS011;2924;51.458;7.046;2022-08-04T20:07:27;8.83;;;4.10;;
5795;SDS011;2924;51.458;7.046;2022-08-04T20:09:54;5.33;;;3.30;;
5795;SDS011;2924;51.458;7.046;2022-08-04T20:12:19;5.90;;;3.00;;
5795;SDS011;2924;51.458;7.046;2022-08-04T20:14:45;7.50;;;3.30;;
5795;SDS011;2924;51.458;7.046;2022-08-04T20:17:11;6.43;;;3.07;;
5795;SDS011;2924;51.458;7.046;2022-08-04T20:19:37;6.60;;;3.57;;